createdAt,value
2023-02-07T00:00:57.106Z,62.33
2023-02-07T00:03:24.851Z,61.71
2023-02-07T00:05:52.608Z,61.30
2023-02-07T00:08:20.309Z,61.61
2023-02-07T00:10:48.046Z,61.80
2023-02-07T00:13:15.752Z,61.66
2023-02-07T00:15:44.829Z,61.55
2023-02-07T00:18:12.543Z,61.88
2023-02-07T00:20:40.293Z,62.24
2023-02-07T00:23:08.003Z,61.15
2023-02-07T00:25:36.049Z,61.64
2023-02-07T00:28:04.026Z,62.04
2023-02-07T00:30:31.834Z,62.08
2023-02-07T00:33:00.915Z,61.68
2023-02-07T00:35:28.640Z,61.42
2023-02-07T00:37:56.352Z,61.74
2023-02-07T00:40:24.193Z,61.58
2023-02-07T00:42:51.930Z,62.11
2023-02-07T00:45:19.603Z,62.49
2023-02-07T00:47:47.326Z,62.22
2023-02-07T00:50:16.607Z,61.82
2023-02-07T00:52:44.377Z,61.86
2023-02-07T00:55:12.135Z,62.11
2023-02-07T00:57:39.812Z,61.90
2023-02-07T01:00:10.878Z,61.92
2023-02-07T01:02:38.636Z,61.71
2023-02-07T01:05:07.138Z,62.39
2023-02-07T01:07:36.517Z,62.33
2023-02-07T01:10:05.042Z,61.97
2023-02-07T01:12:32.802Z,61.62
2023-02-07T01:15:01.028Z,61.82
2023-02-07T01:17:28.846Z,61.72
2023-02-07T01:19:58.530Z,61.95
2023-02-07T01:22:26.376Z,62.12
2023-02-07T01:24:56.321Z,61.81
2023-02-07T01:27:24.682Z,61.54
2023-02-07T01:29:52.674Z,62.01
2023-02-07T01:32:20.385Z,61.90
2023-02-07T01:34:48.143Z,62.14
2023-02-07T01:37:15.871Z,61.95
2023-02-07T01:39:43.576Z,61.30
2023-02-07T01:42:15.068Z,61.97
2023-02-07T01:45:04.713Z,61.92
2023-02-07T01:47:34.030Z,62.05
2023-02-07T01:50:02.347Z,61.38
2023-02-07T01:52:34.944Z,61.82
2023-02-07T01:55:07.799Z,61.75
2023-02-07T01:57:37.803Z,61.22
2023-02-07T02:00:07.073Z,61.49
2023-02-07T02:02:37.716Z,62.02
2023-02-07T02:05:06.458Z,62.11
2023-02-07T02:07:35.834Z,62.20
2023-02-07T02:10:03.582Z,61.57
2023-02-07T02:12:52.588Z,61.68
2023-02-07T02:15:32.555Z,61.59
2023-02-07T02:18:24.110Z,61.28
2023-02-07T02:21:29.296Z,61.73
2023-02-07T02:24:22.449Z,61.62
2023-02-07T02:27:00.092Z,61.52
2023-02-07T02:30:14.020Z,61.78
2023-02-07T02:33:02.055Z,61.03
2023-02-07T02:35:36.596Z,61.30
2023-02-07T02:38:14.296Z,61.40
2023-02-07T02:40:50.638Z,61.52
2023-02-07T02:43:27.069Z,61.38
2023-02-07T02:45:57.997Z,61.49
2023-02-07T02:48:28.432Z,61.49
2023-02-07T02:50:56.786Z,62.00
2023-02-07T02:53:24.697Z,61.38
2023-02-07T02:56:30.202Z,61.22
2023-02-07T02:59:25.009Z,61.37
2023-02-07T03:02:00.567Z,61.32
2023-02-07T03:04:55.022Z,61.29
2023-02-07T03:07:42.129Z,61.32
2023-02-07T03:10:19.900Z,61.45
2023-02-07T03:12:57.845Z,61.45
2023-02-07T03:15:34.397Z,61.06
2023-02-07T03:18:08.916Z,61.12
2023-02-07T03:20:43.202Z,61.21
2023-02-07T03:23:13.015Z,61.07
2023-02-07T03:25:42.735Z,60.97
2023-02-07T03:28:12.647Z,61.33
2023-02-07T03:30:43.991Z,61.10
2023-02-07T03:33:15.051Z,61.13
2023-02-07T03:35:50.723Z,60.99
2023-02-07T03:38:18.793Z,60.81
2023-02-07T03:40:50.002Z,61.00
2023-02-07T03:43:21.655Z,60.91
2023-02-07T03:45:49.407Z,61.13
2023-02-07T03:48:17.126Z,60.63
2023-02-07T03:50:47.657Z,60.77
2023-02-07T03:53:15.420Z,60.70
2023-02-07T03:55:43.111Z,60.54
2023-02-07T03:58:11.003Z,60.47
2023-02-07T04:00:38.962Z,60.30
2023-02-07T04:03:07.589Z,60.37
2023-02-07T04:05:35.455Z,60.75
2023-02-07T04:08:05.032Z,60.47
2023-02-07T04:10:32.758Z,60.13
2023-02-07T04:13:00.443Z,60.08
2023-02-07T04:15:28.390Z,60.07
2023-02-07T04:17:56.061Z,60.30
2023-02-07T04:20:23.810Z,60.44
2023-02-07T04:22:51.494Z,60.31
2023-02-07T04:25:20.595Z,60.35
2023-02-07T04:27:48.369Z,60.37
2023-02-07T04:30:16.119Z,60.11
2023-02-07T04:32:43.851Z,60.12
2023-02-07T04:35:11.558Z,60.03
2023-02-07T04:37:40.637Z,60.07
2023-02-07T04:40:09.486Z,59.92
2023-02-07T04:42:38.556Z,60.08
2023-02-07T04:45:06.908Z,59.64
2023-02-07T04:47:34.625Z,60.00
2023-02-07T04:50:02.399Z,59.48
2023-02-07T04:52:30.084Z,59.37
2023-02-07T04:54:57.815Z,59.59
2023-02-07T04:57:25.543Z,59.64
2023-02-07T04:59:54.631Z,59.67
2023-02-07T05:02:22.364Z,59.54
2023-02-07T05:04:50.102Z,59.35
2023-02-07T05:07:17.889Z,59.51
2023-02-07T05:09:45.576Z,59.02
2023-02-07T05:12:13.715Z,59.10
2023-02-07T05:14:41.425Z,59.39
2023-02-07T05:17:11.592Z,59.40
2023-02-07T05:19:39.337Z,59.38
2023-02-07T05:22:07.062Z,59.41
2023-02-07T05:24:34.767Z,59.39
2023-02-07T05:27:02.481Z,59.43
2023-02-07T05:29:30.263Z,59.57
2023-02-07T05:32:15.692Z,59.09
2023-02-07T05:34:44.740Z,58.93
2023-02-07T05:37:12.479Z,59.38
2023-02-07T05:39:40.189Z,59.29
2023-02-07T05:42:07.930Z,59.04
2023-02-07T05:44:35.633Z,59.27
2023-02-07T05:47:03.383Z,58.87
2023-02-07T05:49:31.142Z,58.86
2023-02-07T05:52:01.527Z,58.57
2023-02-07T05:54:29.203Z,58.91
2023-02-07T05:56:56.943Z,58.97
2023-02-07T05:59:24.682Z,58.95
2023-02-07T06:01:52.384Z,58.77
2023-02-07T06:04:20.179Z,58.85
2023-02-07T06:06:47.940Z,58.88
2023-02-07T06:09:17.151Z,58.24
2023-02-07T06:11:44.928Z,58.36
2023-02-07T06:14:12.663Z,57.05
2023-02-07T06:16:40.320Z,56.74
2023-02-07T06:19:08.019Z,56.47
2023-02-07T06:21:46.098Z,56.06
2023-02-07T06:24:14.413Z,56.01
2023-02-07T06:26:44.349Z,55.05
2023-02-07T06:29:12.091Z,55.02
2023-02-07T06:31:39.964Z,55.17
2023-02-07T06:34:07.840Z,55.05
2023-02-07T06:36:35.639Z,55.64
2023-02-07T06:39:03.518Z,55.76
2023-02-07T06:41:31.339Z,55.99
2023-02-07T06:44:00.401Z,56.40
2023-02-07T06:46:28.176Z,56.59
2023-02-07T06:48:55.967Z,56.69
2023-02-07T06:51:23.796Z,56.82
2023-02-07T06:53:51.479Z,57.11
2023-02-07T06:56:19.181Z,56.68
2023-02-07T06:58:46.953Z,57.19
2023-02-07T07:01:20.087Z,57.31
2023-02-07T07:03:48.087Z,57.39
2023-02-07T07:06:15.781Z,57.18
2023-02-07T07:08:43.491Z,57.61
2023-02-07T07:11:11.169Z,57.52
2023-02-07T07:13:39.012Z,57.72
2023-02-07T07:16:07.366Z,57.47
2023-02-07T07:18:38.379Z,57.71
2023-02-07T07:21:07.231Z,57.57
2023-02-07T07:23:35.148Z,57.44
2023-02-07T07:26:03.030Z,57.98
2023-02-07T07:28:31.102Z,57.79
2023-02-07T07:31:03.724Z,58.04
2023-02-07T07:33:31.527Z,58.07
2023-02-07T07:36:01.147Z,58.20
2023-02-07T07:38:29.400Z,58.03
2023-02-07T07:40:57.341Z,57.96
2023-02-07T07:43:25.372Z,58.32
2023-02-07T07:45:54.587Z,58.30
2023-02-07T07:48:23.263Z,58.42
2023-02-07T07:50:51.463Z,58.13
2023-02-07T07:53:21.384Z,58.30
2023-02-07T07:55:53.616Z,58.37
2023-02-07T07:58:22.818Z,58.24
2023-02-07T08:00:51.351Z,58.46
2023-02-07T08:03:20.421Z,58.62
2023-02-07T08:05:48.808Z,58.50
2023-02-07T08:08:17.301Z,58.56
2023-02-07T08:10:46.660Z,58.64
2023-02-07T08:13:14.559Z,57.79
2023-02-07T08:15:42.283Z,58.02
2023-02-07T08:18:10.333Z,58.15
2023-02-07T08:20:38.359Z,58.34
2023-02-07T08:23:06.270Z,58.19
2023-02-07T08:25:34.009Z,58.04
2023-02-07T08:28:04.609Z,57.79
2023-02-07T08:30:32.971Z,57.98
2023-02-07T08:33:00.813Z,58.20
2023-02-07T08:35:28.761Z,58.20
2023-02-07T08:37:58.287Z,58.71
2023-02-07T08:40:26.726Z,58.69
2023-02-07T08:42:54.577Z,58.68
2023-02-07T08:45:23.779Z,58.77
2023-02-07T08:47:51.632Z,58.95
2023-02-07T08:50:20.040Z,58.48
2023-02-07T08:52:47.820Z,58.37
2023-02-07T08:55:15.719Z,58.81
2023-02-07T08:57:43.430Z,58.88
2023-02-07T09:00:12.578Z,58.59
2023-02-07T09:02:43.413Z,58.63
2023-02-07T09:05:11.707Z,58.43
2023-02-07T09:07:39.700Z,58.26
2023-02-07T09:10:09.392Z,57.93
2023-02-07T09:12:38.242Z,57.39
2023-02-07T09:15:07.062Z,57.27
2023-02-07T09:17:34.824Z,57.06
2023-02-07T09:20:04.541Z,56.29
2023-02-07T09:22:33.094Z,55.71
2023-02-07T09:25:00.857Z,55.11
2023-02-07T09:27:28.596Z,55.01
2023-02-07T09:29:56.324Z,54.84
2023-02-07T09:32:24.057Z,54.45
2023-02-07T09:34:52.387Z,54.02
2023-02-07T09:37:21.509Z,54.38
2023-02-07T09:39:49.253Z,53.84
2023-02-07T09:42:28.998Z,54.52
2023-02-07T09:45:02.408Z,54.59
2023-02-07T09:47:33.576Z,55.39
2023-02-07T09:50:07.093Z,55.74
2023-02-07T09:52:41.982Z,56.21
2023-02-07T09:55:19.127Z,56.51
2023-02-07T09:57:49.860Z,57.21
2023-02-07T10:00:22.828Z,57.30
2023-02-07T10:02:57.572Z,57.60
2023-02-07T10:05:30.893Z,57.80
2023-02-07T10:08:00.012Z,58.07
2023-02-07T10:10:36.833Z,58.13
2023-02-07T10:13:18.993Z,58.44
2023-02-07T10:15:57.717Z,58.69
2023-02-07T10:18:37.089Z,58.48
2023-02-07T10:21:09.693Z,58.72
2023-02-07T10:23:49.829Z,58.76
2023-02-07T10:26:28.134Z,58.77
2023-02-07T10:29:09.157Z,59.10
2023-02-07T10:31:39.706Z,59.02
2023-02-07T10:34:14.655Z,58.83
2023-02-07T10:36:46.497Z,58.81
2023-02-07T10:39:22.865Z,58.97
2023-02-07T10:41:52.152Z,59.17
2023-02-07T10:44:21.381Z,59.10
2023-02-07T10:46:56.862Z,59.11
2023-02-07T10:49:27.205Z,59.39
2023-02-07T10:51:58.102Z,59.39
2023-02-07T10:54:27.295Z,59.34
2023-02-07T10:57:01.756Z,58.76
2023-02-07T10:59:38.639Z,59.15
2023-02-07T11:02:41.845Z,59.47
2023-02-07T11:05:30.022Z,59.36
2023-02-07T11:07:59.326Z,59.57
2023-02-07T11:10:32.244Z,59.88
2023-02-07T11:13:01.473Z,59.69
2023-02-07T11:15:37.788Z,59.84
2023-02-07T11:18:06.813Z,59.67
2023-02-07T11:20:37.836Z,59.89
2023-02-07T11:23:12.242Z,60.19
2023-02-07T11:25:44.041Z,60.02
2023-02-07T11:28:20.730Z,60.29
2023-02-07T11:30:53.297Z,60.37
2023-02-07T11:33:23.961Z,59.99
2023-02-07T11:36:12.634Z,60.13
2023-02-07T11:38:42.990Z,60.38
2023-02-07T11:41:21.211Z,60.15
2023-02-07T11:43:58.301Z,59.94
2023-02-07T11:46:34.553Z,59.97
2023-02-07T11:49:03.363Z,60.19
2023-02-07T11:51:33.581Z,60.28
2023-02-07T11:54:04.148Z,60.55
2023-02-07T11:56:38.025Z,60.28
2023-02-07T11:59:08.884Z,60.41
2023-02-07T12:01:37.823Z,59.86
2023-02-07T12:04:11.291Z,58.55
2023-02-07T12:06:42.987Z,58.99
2023-02-07T12:09:23.122Z,59.85
2023-02-07T12:11:56.806Z,60.14
2023-02-07T12:14:29.357Z,59.69
2023-02-07T12:17:00.621Z,59.42
2023-02-07T12:19:33.691Z,59.45
2023-02-07T12:22:07.807Z,59.01
2023-02-07T12:24:40.661Z,57.89
2023-02-07T12:27:15.633Z,57.36
2023-02-07T12:29:53.523Z,57.01
2023-02-07T12:32:28.585Z,56.26
2023-02-07T12:35:02.582Z,56.27
2023-02-07T12:37:38.663Z,56.75
2023-02-07T12:40:15.497Z,57.27
2023-02-07T12:42:48.378Z,56.97
2023-02-07T12:45:18.796Z,57.34
2023-02-07T12:47:56.851Z,57.35
2023-02-07T12:50:50.389Z,57.16
2023-02-07T12:53:34.460Z,57.09
2023-02-07T12:56:13.955Z,57.75
2023-02-07T12:58:53.605Z,57.49
2023-02-07T13:01:30.149Z,57.98
2023-02-07T13:04:33.535Z,58.23
2023-02-07T13:07:17.039Z,58.68
2023-02-07T13:09:53.223Z,57.87
2023-02-07T13:12:27.574Z,57.83
2023-02-07T13:15:09.660Z,58.32
2023-02-07T13:17:51.265Z,57.97
2023-02-07T13:20:45.424Z,57.77
2023-02-07T13:23:19.021Z,57.73
2023-02-07T13:25:50.448Z,57.99
2023-02-07T13:28:26.479Z,57.93
2023-02-07T13:30:57.459Z,58.19
2023-02-07T13:33:30.887Z,58.40
2023-02-07T13:36:04.412Z,57.67
2023-02-07T13:38:44.742Z,58.08
2023-02-07T13:41:20.451Z,57.67
2023-02-07T13:44:09.059Z,57.94
2023-02-07T13:46:58.785Z,57.40
2023-02-07T13:49:38.312Z,58.05
2023-02-07T13:52:12.001Z,58.34
2023-02-07T13:54:48.440Z,57.39
2023-02-07T13:57:58.354Z,56.81
2023-02-07T14:00:27.954Z,56.18
2023-02-07T14:03:00.395Z,54.95
2023-02-07T14:05:31.610Z,54.33
2023-02-07T14:08:02.548Z,54.54
2023-02-07T14:10:48.936Z,53.23
2023-02-07T14:13:28.564Z,54.49
2023-02-07T14:16:06.149Z,54.28
2023-02-07T14:18:42.758Z,54.09
2023-02-07T14:21:31.740Z,55.69
2023-02-07T14:24:05.799Z,54.93
2023-02-07T14:26:59.703Z,55.55
2023-02-07T14:29:57.113Z,55.34
2023-02-07T14:32:31.658Z,55.85
2023-02-07T14:35:04.637Z,55.83
2023-02-07T14:37:40.859Z,55.74
2023-02-07T14:40:19.313Z,55.39
2023-02-07T14:42:56.504Z,56.34
2023-02-07T14:45:25.372Z,54.98
2023-02-07T14:47:53.416Z,54.99
2023-02-07T14:50:31.749Z,54.01
2023-02-07T14:53:01.630Z,53.68
2023-02-07T14:55:35.412Z,54.21
2023-02-07T14:58:08.585Z,54.31
2023-02-07T15:00:41.213Z,54.06
2023-02-07T15:03:13.847Z,54.51
2023-02-07T15:05:51.261Z,55.15
2023-02-07T15:08:20.820Z,55.37
2023-02-07T15:10:56.022Z,54.26
2023-02-07T15:13:27.871Z,55.09
2023-02-07T15:15:58.132Z,55.41
2023-02-07T15:18:29.791Z,55.14
2023-02-07T15:21:00.046Z,53.90
2023-02-07T15:23:29.812Z,53.57
2023-02-07T15:25:59.456Z,52.36
2023-02-07T15:28:29.266Z,52.26
2023-02-07T15:31:03.241Z,51.59
2023-02-07T15:33:36.842Z,52.06
2023-02-07T15:36:08.329Z,51.42
2023-02-07T15:38:36.082Z,52.41
2023-02-07T15:41:04.821Z,52.63
2023-02-07T15:43:34.603Z,53.47
2023-02-07T15:46:08.828Z,53.76
2023-02-07T15:48:48.865Z,53.49
2023-02-07T15:51:20.255Z,54.43
2023-02-07T15:53:51.833Z,54.11
2023-02-07T15:56:20.205Z,53.44
2023-02-07T15:58:49.859Z,54.04
2023-02-07T16:01:25.644Z,54.46
2023-02-07T16:03:56.569Z,54.41
2023-02-07T16:06:27.490Z,54.32
2023-02-07T16:08:56.997Z,54.29
2023-02-07T16:11:44.369Z,54.64
2023-02-07T16:14:19.400Z,55.57
2023-02-07T16:16:52.614Z,54.99
2023-02-07T16:19:25.069Z,55.11
2023-02-07T16:22:03.868Z,55.38
2023-02-07T16:24:35.288Z,54.72
2023-02-07T16:27:04.576Z,54.58
2023-02-07T16:29:32.392Z,55.08
2023-02-07T16:32:00.301Z,55.53
2023-02-07T16:34:28.144Z,55.35
2023-02-07T16:36:57.554Z,55.28
2023-02-07T16:39:25.313Z,55.65
2023-02-07T16:41:56.809Z,55.63
2023-02-07T16:44:26.420Z,55.38
2023-02-07T16:46:54.196Z,55.18
2023-02-07T16:49:24.024Z,56.02
2023-02-07T16:51:52.355Z,55.61
2023-02-07T16:54:21.646Z,55.60
2023-02-07T16:56:53.745Z,55.60
2023-02-07T16:59:23.351Z,55.73
2023-02-07T17:01:54.103Z,56.00
2023-02-07T17:04:22.672Z,55.35
2023-02-07T17:06:50.898Z,55.37
2023-02-07T17:09:23.073Z,54.35
2023-02-07T17:11:51.643Z,53.80
2023-02-07T17:14:19.503Z,52.70
2023-02-07T17:16:47.464Z,52.32
2023-02-07T17:19:18.286Z,52.46
2023-02-07T17:21:46.339Z,51.30
2023-02-07T17:24:14.833Z,51.50
2023-02-07T17:26:46.277Z,50.81
2023-02-07T17:29:16.175Z,50.74
2023-02-07T17:31:44.763Z,51.19
2023-02-07T17:34:12.677Z,51.75
2023-02-07T17:36:44.224Z,51.70
2023-02-07T17:39:13.497Z,51.94
2023-02-07T17:41:41.225Z,52.68
2023-02-07T17:44:10.342Z,52.74
2023-02-07T17:46:38.421Z,53.06
2023-02-07T17:49:13.709Z,54.04
2023-02-07T17:51:41.440Z,53.65
2023-02-07T17:54:09.128Z,53.63
2023-02-07T17:56:39.315Z,53.72
2023-02-07T17:59:10.065Z,54.38
2023-02-07T18:01:39.260Z,53.49
2023-02-07T18:04:07.089Z,54.23
2023-02-07T18:06:34.886Z,53.97
2023-02-07T18:09:02.647Z,54.17
2023-02-07T18:11:30.448Z,54.15
2023-02-07T18:13:58.261Z,54.21
2023-02-07T18:16:27.639Z,54.69
2023-02-07T18:18:58.111Z,54.44
2023-02-07T18:21:26.424Z,54.83
2023-02-07T18:23:56.291Z,54.89
2023-02-07T18:26:24.110Z,54.35
2023-02-07T18:28:51.885Z,54.26
2023-02-07T18:31:23.144Z,52.80
2023-02-07T18:33:52.785Z,53.20
2023-02-07T18:36:23.426Z,51.93
2023-02-07T18:38:51.710Z,51.92
2023-02-07T18:41:23.358Z,51.01
2023-02-07T18:43:51.634Z,50.63
2023-02-07T18:46:21.693Z,50.52
2023-02-07T18:48:54.419Z,50.36
2023-02-07T18:51:24.715Z,50.31
2023-02-07T18:53:54.837Z,51.07
2023-02-07T18:56:26.584Z,51.67
2023-02-07T18:58:56.672Z,52.47
2023-02-07T19:01:26.403Z,51.99
2023-02-07T19:03:56.258Z,51.72
2023-02-07T19:06:27.501Z,52.40
2023-02-07T19:08:56.566Z,52.51
2023-02-07T19:11:24.441Z,52.42
2023-02-07T19:13:52.159Z,52.41
2023-02-07T19:16:22.215Z,53.08
2023-02-07T19:18:50.649Z,52.89
2023-02-07T19:21:21.690Z,52.81
2023-02-07T19:23:51.179Z,52.61
2023-02-07T19:26:18.946Z,52.85
2023-02-07T19:28:46.669Z,53.11
2023-02-07T19:31:18.169Z,52.75
2023-02-07T19:33:46.616Z,52.76
2023-02-07T19:36:14.562Z,53.21
2023-02-07T19:38:42.537Z,53.63
2023-02-07T19:41:11.640Z,53.51
2023-02-07T19:43:39.444Z,54.05
2023-02-07T19:46:07.194Z,53.88
2023-02-07T19:48:34.979Z,54.01
2023-02-07T19:51:04.218Z,53.80
2023-02-07T19:53:33.113Z,53.27
2023-02-07T19:56:03.141Z,53.86
2023-02-07T19:58:33.665Z,53.16
2023-02-07T20:01:02.087Z,53.34
2023-02-07T20:03:30.170Z,53.46
2023-02-07T20:06:00.573Z,53.56
2023-02-07T20:08:28.704Z,53.47
2023-02-07T20:10:56.395Z,53.36
2023-02-07T20:13:24.140Z,53.25
2023-02-07T20:15:53.234Z,53.70
2023-02-07T20:18:20.978Z,53.69
2023-02-07T20:20:48.741Z,53.49
2023-02-07T20:23:16.479Z,53.66
2023-02-07T20:25:44.256Z,53.79
2023-02-07T20:28:12.099Z,53.71
2023-02-07T20:30:45.885Z,53.63
2023-02-07T20:33:15.015Z,53.90
2023-02-07T20:35:42.689Z,53.49
2023-02-07T20:38:10.411Z,53.83
2023-02-07T20:40:38.506Z,53.11
2023-02-07T20:43:06.376Z,53.53
2023-02-07T20:45:34.143Z,53.83
2023-02-07T20:48:01.992Z,53.88
2023-02-07T20:50:31.108Z,53.18
2023-02-07T20:52:58.984Z,53.79
2023-02-07T20:55:26.963Z,53.70
2023-02-07T20:57:54.629Z,53.19
2023-02-07T21:00:22.333Z,53.58
2023-02-07T21:02:50.090Z,53.43
2023-02-07T21:05:18.036Z,53.29
2023-02-07T21:07:47.185Z,53.25
2023-02-07T21:10:15.067Z,53.13
2023-02-07T21:12:42.782Z,53.43
2023-02-07T21:15:11.172Z,53.55
2023-02-07T21:17:39.091Z,52.77
2023-02-07T21:20:07.616Z,52.78
2023-02-07T21:22:35.705Z,53.00
2023-02-07T21:25:04.973Z,52.93
2023-02-07T21:27:32.624Z,53.35
2023-02-07T21:30:00.367Z,53.00
2023-02-07T21:32:28.078Z,53.23
2023-02-07T21:34:55.800Z,52.98
2023-02-07T21:37:24.929Z,53.10
2023-02-07T21:39:52.690Z,53.10
2023-02-07T21:42:21.793Z,53.51
2023-02-07T21:44:49.515Z,53.07
2023-02-07T21:47:17.204Z,53.12
2023-02-07T21:49:44.916Z,53.36
2023-02-07T21:52:12.600Z,52.91
2023-02-07T21:54:40.328Z,53.01
2023-02-07T21:57:07.984Z,53.29
2023-02-07T21:59:37.212Z,53.45
2023-02-07T22:02:04.949Z,53.03
2023-02-07T22:04:32.657Z,53.01
2023-02-07T22:07:00.399Z,53.18
2023-02-07T22:09:28.072Z,53.24
2023-02-07T22:11:55.850Z,53.41
2023-02-07T22:14:24.835Z,53.56
2023-02-07T22:16:54.393Z,53.23
2023-02-07T22:19:22.901Z,53.28
2023-02-07T22:21:51.526Z,53.41
2023-02-07T22:24:21.147Z,53.24
2023-02-07T22:26:48.842Z,53.07
2023-02-07T22:29:16.677Z,53.04
2023-02-07T22:31:44.585Z,53.68
2023-02-07T22:34:14.756Z,53.28
2023-02-07T22:36:44.109Z,53.92
2023-02-07T22:39:13.639Z,53.51
2023-02-07T22:41:41.366Z,53.39
2023-02-07T22:44:09.291Z,53.07
2023-02-07T22:46:37.156Z,53.18
2023-02-07T22:49:04.929Z,53.31
2023-02-07T22:51:36.481Z,53.33
2023-02-07T22:54:06.536Z,52.79
2023-02-07T22:56:35.248Z,53.09
2023-02-07T22:59:03.022Z,53.19
2023-02-07T23:01:36.633Z,53.14
2023-02-07T23:04:05.817Z,52.92
2023-02-07T23:06:35.158Z,52.77
2023-02-07T23:09:05.177Z,53.09
2023-02-07T23:11:33.294Z,53.25
2023-02-07T23:14:01.120Z,52.92
2023-02-07T23:16:30.644Z,52.45
2023-02-07T23:19:02.871Z,52.95
2023-02-07T23:21:30.736Z,52.62
2023-02-07T23:23:59.802Z,52.86
2023-02-07T23:26:28.656Z,52.94
2023-02-07T23:28:56.350Z,53.28
2023-02-07T23:31:25.817Z,53.14
2023-02-07T23:33:54.181Z,52.95
2023-02-07T23:36:22.589Z,52.85
2023-02-07T23:38:50.987Z,52.82
2023-02-07T23:41:20.543Z,52.64
2023-02-07T23:43:48.368Z,53.28
2023-02-07T23:46:17.376Z,52.94
2023-02-07T23:48:45.512Z,53.23
2023-02-07T23:51:14.066Z,52.95
2023-02-07T23:53:42.651Z,52.91
2023-02-07T23:56:12.202Z,53.22
2023-02-07T23:58:41.337Z,53.38
